Time;durP1;ratioP1;P1;durP2;ratioP2;P2;SDS_P1;SDS_P2;PMS_P1;PMS_P2;Temp;Humidity;BMP_temperature;BMP_pressure;BME280_temperature;BME280_humidity;BME280_pressure;Samples;Min_cycle;Max_cycle;Signal;HPM_P1;HPM_P2
2023/08/16 00:00:49;;;;;;;3.35;3.00;;;25.50;62.40;;;;;;4873904;28;90768;-89
2023/08/16 00:03:15;;;;;;;3.03;2.80;;;25.50;62.70;;;;;;4907381;28;88501;-88
2023/08/16 00:05:43;;;;;;;2.78;2.58;;;25.40;62.60;;;;;;4875937;28;87359;-89
2023/08/16 00:08:09;;;;;;;3.67;3.27;;;25.50;62.80;;;;;;4876508;28;88075;-90
2023/08/16 00:10:35;;;;;;;3.03;2.70;;;25.40;62.60;;;;;;4872835;28;90497;-88
2023/08/16 00:13:01;;;;;;;3.00;2.72;;;25.50;62.70;;;;;;4877235;28;87426;-88
2023/08/16 00:15:27;;;;;;;2.95;2.72;;;25.40;62.70;;;;;;4876141;28;87952;-89
2023/08/16 00:17:53;;;;;;;3.10;2.88;;;25.50;62.50;;;;;;4875934;28;88640;-89
2023/08/16 00:20:26;;;;;;;2.90;2.70;;;25.40;62.40;;;;;;4903763;28;90217;-88
2023/08/16 00:22:52;;;;;;;2.70;2.50;;;25.50;62.60;;;;;;4876027;28;87576;-89
2023/08/16 00:25:18;;;;;;;3.25;2.95;;;25.40;62.60;;;;;;4906824;28;89779;-88
2023/08/16 00:27:44;;;;;;;2.85;2.58;;;25.40;62.50;;;;;;4873639;28;90136;-89
2023/08/16 00:30:10;;;;;;;4.18;3.17;;;25.40;62.40;;;;;;4877457;28;87212;-89
2023/08/16 00:32:37;;;;;;;2.92;2.72;;;25.40;62.40;;;;;;4877226;28;87349;-90
2023/08/16 00:35:03;;;;;;;4.03;3.10;;;25.40;62.60;;;;;;4873263;28;88849;-90
2023/08/16 00:37:29;;;;;;;3.38;3.08;;;25.40;62.50;;;;;;4873936;28;91321;-88
2023/08/16 00:39:54;;;;;;;2.75;2.50;;;25.40;62.60;;;;;;4903928;28;88781;-88
2023/08/16 00:42:20;;;;;;;3.33;2.70;;;25.40;62.40;;;;;;4873974;28;88791;-90
2023/08/16 00:44:46;;;;;;;3.67;2.90;;;25.40;62.40;;;;;;4874959;28;87620;-88
2023/08/16 00:47:12;;;;;;;2.92;2.63;;;25.40;62.70;;;;;;4874896;28;87038;-89
2023/08/16 00:49:40;;;;;;;3.13;2.90;;;25.40;62.70;;;;;;4872686;28;90591;-89
2023/08/16 00:52:06;;;;;;;2.92;2.55;;;25.40;62.70;;;;;;4872702;28;89648;-89
2023/08/16 00:54:32;;;;;;;3.05;2.75;;;25.40;62.70;;;;;;4874343;28;88107;-90
2023/08/16 00:56:59;;;;;;;2.90;2.70;;;25.40;62.90;;;;;;4873614;28;90283;-89
2023/08/16 00:59:27;;;;;;;3.15;2.85;;;25.40;62.80;;;;;;4874531;28;87506;-89
2023/08/16 01:01:53;;;;;;;3.67;3.15;;;25.40;62.70;;;;;;4872504;28;88028;-89
2023/08/16 01:04:19;;;;;;;3.47;3.05;;;25.30;63.50;;;;;;4874714;28;88656;-88
2023/08/16 01:06:45;;;;;;;3.00;2.72;;;25.40;62.90;;;;;;4871633;28;91709;-90
2023/08/16 01:09:11;;;;;;;2.95;2.75;;;25.40;62.80;;;;;;4876360;28;88809;-89
2023/08/16 01:11:58;;;;;;;2.92;2.72;;;25.30;62.90;;;;;;4876322;28;87974;-88
2023/08/16 01:14:29;;;;;;;2.78;2.38;;;25.40;62.90;;;;;;4874570;28;87820;-89
2023/08/16 01:16:56;;;;;;;2.55;2.35;;;25.40;62.80;;;;;;4873030;28;90405;-88
2023/08/16 01:19:29;;;;;;;3.42;3.08;;;25.40;62.90;;;;;;4874370;28;88564;-89
2023/08/16 01:22:25;;;;;;;3.20;2.60;;;25.30;62.80;;;;;;4873122;28;87519;-89
2023/08/16 01:25:14;;;;;;;3.25;2.92;;;25.30;62.80;;;;;;4874154;28;90318;-88
2023/08/16 01:27:41;;;;;;;2.90;2.67;;;25.30;62.70;;;;;;4873333;28;87748;-89
2023/08/16 01:30:08;;;;;;;2.70;2.50;;;25.30;62.90;;;;;;4874188;28;88882;-89
2023/08/16 01:32:34;;;;;;;2.67;2.47;;;25.30;63.00;;;;;;4873455;28;88028;-90
2023/08/16 01:35:00;;;;;;;2.72;2.50;;;25.30;63.00;;;;;;4871648;28;89206;-88
2023/08/16 01:37:26;;;;;;;3.25;2.30;;;25.30;63.00;;;;;;4871496;28;90708;-90
2023/08/16 01:39:54;;;;;;;2.67;2.47;;;25.30;63.10;;;;;;4871962;28;89294;-89
2023/08/16 01:42:21;;;;;;;3.58;2.85;;;25.30;63.10;;;;;;4875723;28;88224;-88
2023/08/16 01:44:49;;;;;;;3.70;2.80;;;25.30;63.10;;;;;;4874225;28;88094;-88
2023/08/16 01:47:15;;;;;;;3.13;2.38;;;25.30;62.80;;;;;;4874313;28;88043;-89
2023/08/16 01:49:45;;;;;;;2.78;2.55;;;25.30;62.90;;;;;;4872560;28;90655;-88
2023/08/16 01:52:11;;;;;;;3.13;2.83;;;25.30;62.80;;;;;;4873139;28;87568;-89
2023/08/16 01:54:37;;;;;;;2.60;2.40;;;25.30;63.00;;;;;;4871622;28;88556;-90
2023/08/16 01:57:02;;;;;;;2.70;2.50;;;25.30;62.90;;;;;;4873851;28;88865;-89
2023/08/16 01:59:28;;;;;;;3.50;2.70;;;25.30;63.00;;;;;;4873263;28;90104;-91
2023/08/16 02:01:53;;;;;;;2.85;2.60;;;25.30;62.90;;;;;;4873553;28;87667;-88
2023/08/16 02:04:19;;;;;;;2.50;2.30;;;25.30;63.00;;;;;;4872445;28;87271;-91
2023/08/16 02:06:45;;;;;;;2.90;2.67;;;25.30;62.90;;;;;;4875058;28;89108;-90
2023/08/16 02:09:10;;;;;;;2.58;2.38;;;25.30;62.80;;;;;;4872989;28;90125;-90
2023/08/16 02:11:36;;;;;;;3.20;2.90;;;25.30;62.90;;;;;;4874800;28;87996;-89
2023/08/16 02:14:02;;;;;;;3.20;2.90;;;25.30;63.10;;;;;;4872323;28;87550;-89
2023/08/16 02:16:27;;;;;;;3.47;2.85;;;25.30;63.00;;;;;;4872404;28;89504;-89
2023/08/16 02:18:53;;;;;;;2.83;2.63;;;25.30;63.00;;;;;;4873669;28;88867;-90
2023/08/16 02:21:18;;;;;;;2.65;2.45;;;25.30;63.00;;;;;;4873497;28;88421;-89
2023/08/16 02:23:44;;;;;;;2.75;2.47;;;25.30;63.00;;;;;;4873108;28;90515;-89
2023/08/16 02:26:10;;;;;;;2.80;2.60;;;25.30;62.90;;;;;;4871049;28;89366;-89
2023/08/16 02:28:35;;;;;;;2.72;2.53;;;25.30;62.90;;;;;;4874030;28;88640;-90
2023/08/16 02:31:05;;;;;;;2.42;2.17;;;25.30;62.80;;;;;;4875135;28;87438;-87
2023/08/16 02:33:33;;;;;;;2.53;2.30;;;25.30;62.80;;;;;;4872133;28;88313;-89
2023/08/16 02:35:59;;;;;;;2.70;2.50;;;25.20;62.80;;;;;;4873650;28;90937;-91
2023/08/16 02:38:24;;;;;;;2.45;2.25;;;25.30;62.80;;;;;;4873416;28;87465;-90
2023/08/16 02:40:50;;;;;;;2.53;2.33;;;25.30;62.80;;;;;;4873045;28;87418;-89
2023/08/16 02:43:16;;;;;;;2.88;2.65;;;25.30;62.80;;;;;;4904620;28;89808;-89
2023/08/16 02:45:43;;;;;;;2.45;2.25;;;25.30;62.90;;;;;;4870385;28;90719;-89
2023/08/16 02:48:08;;;;;;;2.65;2.45;;;25.30;63.00;;;;;;4871698;28;91349;-89
2023/08/16 02:50:34;;;;;;;2.50;2.30;;;25.30;62.90;;;;;;4874016;28;87642;-89
2023/08/16 02:53:00;;;;;;;2.55;2.35;;;25.30;62.90;;;;;;4874142;28;88372;-89
2023/08/16 02:55:25;;;;;;;3.30;2.97;;;25.30;63.00;;;;;;4873625;28;90294;-89
2023/08/16 02:57:52;;;;;;;3.20;2.70;;;25.30;63.00;;;;;;4873065;28;87241;-89
2023/08/16 03:00:18;;;;;;;3.08;2.78;;;25.30;62.80;;;;;;4874097;28;87358;-88
2023/08/16 03:02:44;;;;;;;2.83;2.63;;;25.30;63.00;;;;;;4875310;28;86741;-88
2023/08/16 03:05:10;;;;;;;3.65;2.50;;;25.30;62.90;;;;;;4872924;28;87840;-91
2023/08/16 03:07:36;;;;;;;2.33;2.13;;;25.30;63.00;;;;;;4904863;28;88944;-89
2023/08/16 03:10:02;;;;;;;2.83;2.63;;;25.20;62.70;;;;;;4872116;28;88038;-88
2023/08/16 03:12:27;;;;;;;2.50;2.30;;;25.20;62.80;;;;;;4873057;28;88560;-89
2023/08/16 03:14:53;;;;;;;2.53;2.22;;;25.20;62.80;;;;;;4903621;28;89138;-88
2023/08/16 03:17:19;;;;;;;2.47;2.28;;;25.20;62.80;;;;;;4870848;28;90319;-90
2023/08/16 03:19:44;;;;;;;2.63;2.38;;;25.20;62.60;;;;;;4872892;28;87693;-88
2023/08/16 03:22:10;;;;;;;2.40;2.20;;;25.20;62.70;;;;;;4871884;28;87753;-89
2023/08/16 03:24:36;;;;;;;2.75;2.55;;;25.20;62.80;;;;;;4874906;28;88018;-89
2023/08/16 03:27:02;;;;;;;3.00;2.50;;;25.20;62.80;;;;;;4871704;28;89274;-89
2023/08/16 03:29:28;;;;;;;2.50;2.30;;;25.20;62.80;;;;;;4903643;28;87078;-88
2023/08/16 03:31:54;;;;;;;2.47;2.28;;;25.20;62.70;;;;;;4872924;28;88327;-88
2023/08/16 03:34:19;;;;;;;3.25;2.72;;;25.20;62.70;;;;;;4869874;28;92316;-88
2023/08/16 03:36:45;;;;;;;2.30;2.10;;;25.20;62.70;;;;;;4870234;28;91417;-90
2023/08/16 03:39:11;;;;;;;2.45;2.25;;;25.20;62.60;;;;;;4870544;28;87550;-90
2023/08/16 03:41:37;;;;;;;2.13;1.92;;;25.20;62.90;;;;;;4871858;28;90065;-90
2023/08/16 03:44:06;;;;;;;3.67;2.88;;;25.20;62.90;;;;;;4871148;28;88311;-90
2023/08/16 03:46:32;;;;;;;2.75;2.55;;;25.20;62.90;;;;;;4872868;28;88263;-90
2023/08/16 03:48:57;;;;;;;3.08;2.80;;;25.20;63.00;;;;;;4886228;28;87600;-90
2023/08/16 03:51:23;;;;;;;2.92;2.67;;;25.20;62.90;;;;;;4903589;28;88506;-91
2023/08/16 03:53:48;;;;;;;2.58;2.38;;;25.20;62.90;;;;;;4869726;28;91403;-89
2023/08/16 03:56:14;;;;;;;2.78;2.55;;;25.20;62.90;;;;;;4872028;28;88577;-88
2023/08/16 03:58:40;;;;;;;2.63;2.42;;;25.20;62.90;;;;;;4871985;28;88433;-90
2023/08/16 04:01:06;;;;;;;2.40;2.20;;;25.20;62.90;;;;;;4874336;28;87279;-89
2023/08/16 04:03:31;;;;;;;2.60;2.40;;;25.20;63.70;;;;;;4873169;28;87595;-89
2023/08/16 04:05:57;;;;;;;2.85;2.53;;;25.20;63.10;;;;;;4873085;28;88339;-90
2023/08/16 04:08:22;;;;;;;2.67;2.47;;;25.20;63.00;;;;;;4870431;28;87352;-89
2023/08/16 04:10:48;;;;;;;2.55;2.35;;;25.20;63.00;;;;;;4901430;28;90550;-88
2023/08/16 04:13:14;;;;;;;2.28;2.08;;;25.20;63.00;;;;;;4871912;28;87787;-90
2023/08/16 04:15:39;;;;;;;2.88;2.33;;;25.20;63.00;;;;;;4870591;28;90867;-88
2023/08/16 04:18:05;;;;;;;2.30;2.10;;;25.20;63.10;;;;;;4871368;28;88090;-88
2023/08/16 04:20:31;;;;;;;2.60;2.38;;;25.20;63.10;;;;;;4870119;28;94360;-89
2023/08/16 04:22:56;;;;;;;3.00;2.70;;;25.20;63.10;;;;;;4872240;28;89024;-89
2023/08/16 04:25:22;;;;;;;3.03;2.28;;;25.20;63.00;;;;;;4875096;28;88487;-89
2023/08/16 04:27:47;;;;;;;2.97;2.53;;;25.20;63.00;;;;;;4875145;28;87119;-90
2023/08/16 04:30:13;;;;;;;2.30;2.10;;;25.20;62.90;;;;;;4875404;28;89447;-89
2023/08/16 04:32:39;;;;;;;2.72;2.22;;;25.20;63.00;;;;;;4874254;28;90367;-89
2023/08/16 04:35:05;;;;;;;2.70;2.50;;;25.20;63.10;;;;;;4876376;28;87826;-89
2023/08/16 04:37:31;;;;;;;2.72;2.53;;;25.10;62.90;;;;;;4905830;28;87152;-90
2023/08/16 04:39:57;;;;;;;2.40;2.20;;;25.10;63.00;;;;;;4875759;28;88699;-89
2023/08/16 04:42:22;;;;;;;2.35;2.15;;;25.20;63.10;;;;;;4873484;28;91025;-88
2023/08/16 04:44:48;;;;;;;2.38;2.17;;;25.20;62.90;;;;;;4876681;28;88136;-88
2023/08/16 04:47:14;;;;;;;2.50;2.30;;;25.10;62.80;;;;;;4875509;28;88297;-90
2023/08/16 04:49:40;;;;;;;2.58;2.38;;;25.10;62.80;;;;;;4876284;28;87615;-88
2023/08/16 04:52:06;;;;;;;2.28;2.08;;;25.10;62.90;;;;;;4873538;28;89667;-88
2023/08/16 04:54:32;;;;;;;2.50;2.13;;;25.10;62.90;;;;;;4873419;28;90315;-90
2023/08/16 04:56:58;;;;;;;2.40;2.20;;;25.20;63.00;;;;;;4876663;28;87607;-88
2023/08/16 04:59:24;;;;;;;2.60;2.40;;;25.10;63.00;;;;;;4872585;28;88112;-88
2023/08/16 05:01:50;;;;;;;2.40;2.20;;;25.10;63.00;;;;;;4874794;28;87304;-89
2023/08/16 05:04:15;;;;;;;3.05;2.80;;;25.10;63.10;;;;;;4905172;28;90564;-89
2023/08/16 05:06:41;;;;;;;2.47;2.28;;;25.10;63.10;;;;;;4875649;28;88300;-89
2023/08/16 05:09:07;;;;;;;2.35;2.15;;;25.10;63.10;;;;;;4875127;28;87386;-88
2023/08/16 05:11:33;;;;;;;2.47;2.28;;;25.10;63.20;;;;;;4872292;28;91760;-90
2023/08/16 05:13:58;;;;;;;2.53;2.33;;;25.10;63.20;;;;;;4904590;28;91323;-90
2023/08/16 05:16:24;;;;;;;2.70;2.30;;;25.10;63.10;;;;;;4874612;28;87182;-89
2023/08/16 05:18:52;;;;;;;2.35;2.17;;;25.10;63.00;;;;;;4872747;28;88477;-89
2023/08/16 05:21:18;;;;;;;2.50;2.25;;;25.10;63.10;;;;;;4872792;28;89995;-89
2023/08/16 05:23:44;;;;;;;2.50;2.30;;;25.10;63.30;;;;;;4875426;28;87346;-89
2023/08/16 05:26:10;;;;;;;2.78;2.28;;;25.10;63.20;;;;;;4872967;28;88284;-89
2023/08/16 05:28:36;;;;;;;2.72;2.53;;;25.10;63.10;;;;;;4875333;28;90320;-88
2023/08/16 05:31:11;;;;;;;2.30;2.20;;;25.10;63.10;;;;;;4874773;28;87735;-89
2023/08/16 05:33:38;;;;;;;2.75;2.55;;;25.10;63.40;;;;;;4874970;28;87668;-90
2023/08/16 05:36:04;;;;;;;3.10;2.80;;;25.10;63.40;;;;;;4872831;28;88556;-89
2023/08/16 05:38:30;;;;;;;2.42;2.17;;;25.10;63.20;;;;;;4874534;28;88490;-89
2023/08/16 05:40:57;;;;;;;2.40;2.20;;;25.10;63.40;;;;;;4874452;28;88384;-89
2023/08/16 05:43:22;;;;;;;2.50;2.30;;;25.10;63.40;;;;;;4904472;28;90222;-89
2023/08/16 05:45:48;;;;;;;2.50;2.30;;;25.10;63.30;;;;;;4874857;28;87617;-90
2023/08/16 05:48:13;;;;;;;2.70;2.50;;;25.10;63.40;;;;;;4872740;28;87808;-89
2023/08/16 05:50:41;;;;;;;2.65;2.45;;;25.10;63.40;;;;;;4873151;28;90513;-88
2023/08/16 05:53:07;;;;;;;2.75;2.28;;;25.10;63.40;;;;;;4872922;28;90363;-89
2023/08/16 05:55:32;;;;;;;2.00;1.90;;;25.10;63.40;;;;;;4874837;28;87472;-88
2023/08/16 05:57:58;;;;;;;2.58;2.38;;;25.10;63.30;;;;;;4906071;28;88238;-89
2023/08/16 06:00:25;;;;;;;2.58;2.38;;;25.10;63.40;;;;;;4873599;28;90146;-89
2023/08/16 06:02:52;;;;;;;2.55;2.28;;;25.10;63.40;;;;;;4873539;28;90054;-89
2023/08/16 06:05:18;;;;;;;2.28;2.08;;;25.10;63.20;;;;;;4875129;28;87882;-90
2023/08/16 06:07:44;;;;;;;2.33;2.13;;;25.10;63.40;;;;;;4874585;28;87395;-89
2023/08/16 06:10:10;;;;;;;2.13;1.92;;;25.20;63.30;;;;;;4872866;28;90642;-88
2023/08/16 06:12:36;;;;;;;2.28;2.03;;;25.20;63.40;;;;;;4875312;28;88029;-90
2023/08/16 06:15:02;;;;;;;2.42;2.22;;;25.20;63.30;;;;;;4873052;28;87626;-89
2023/08/16 06:17:28;;;;;;;2.20;2.00;;;25.20;63.30;;;;;;4873711;28;88259;-89
2023/08/16 06:19:54;;;;;;;2.42;2.22;;;25.20;63.10;;;;;;4872998;28;88839;-89
2023/08/16 06:22:19;;;;;;;2.50;2.30;;;25.20;63.20;;;;;;4872939;28;87850;-88
2023/08/16 06:24:45;;;;;;;2.40;2.20;;;25.20;63.00;;;;;;4874270;28;88422;-88
2023/08/16 06:27:11;;;;;;;2.47;2.28;;;25.20;63.00;;;;;;4873837;28;87684;-89
2023/08/16 06:29:36;;;;;;;2.20;2.10;;;25.10;63.80;;;;;;4873819;28;90942;-89
2023/08/16 06:32:03;;;;;;;2.45;2.25;;;25.20;63.10;;;;;;4890132;28;90437;-89
2023/08/16 06:34:29;;;;;;;2.47;2.28;;;25.20;63.00;;;;;;4873997;28;86918;-88
2023/08/16 06:36:55;;;;;;;2.20;2.00;;;25.20;63.00;;;;;;4874266;28;87290;-89
2023/08/16 06:39:21;;;;;;;2.30;2.10;;;25.10;63.00;;;;;;4874970;28;87334;-88
2023/08/16 06:41:48;;;;;;;2.63;2.15;;;25.10;63.00;;;;;;4875845;28;87375;-88
2023/08/16 06:44:14;;;;;;;2.63;2.42;;;25.10;63.10;;;;;;4873188;28;87602;-89
2023/08/16 06:46:40;;;;;;;2.38;2.17;;;25.10;63.20;;;;;;4874607;28;88099;-89
2023/08/16 06:49:05;;;;;;;2.38;2.17;;;25.10;63.30;;;;;;4872653;28;89848;-90
2023/08/16 06:51:31;;;;;;;2.72;2.53;;;25.10;63.10;;;;;;4873297;28;91075;-88
2023/08/16 06:53:57;;;;;;;1.88;1.77;;;25.10;63.40;;;;;;4872881;28;88153;-88
2023/08/16 06:56:22;;;;;;;2.35;2.15;;;25.10;63.30;;;;;;4875298;28;87175;-92
2023/08/16 06:58:50;;;;;;;3.03;2.22;;;25.10;63.40;;;;;;4880286;28;88174;-93
2023/08/16 07:01:16;;;;;;;3.33;2.35;;;25.10;61.70;;;;;;4886264;28;90045;-94
2023/08/16 07:03:41;;;;;;;4.88;2.55;;;25.10;61.70;;;;;;4883643;28;87420;-92
2023/08/16 07:06:07;;;;;;;5.35;2.42;;;25.10;61.30;;;;;;4881524;28;86804;-94
2023/08/16 07:08:33;;;;;;;3.75;2.20;;;25.10;61.20;;;;;;4879945;28;90689;-92
2023/08/16 07:10:58;;;;;;;8.98;2.55;;;25.00;61.10;;;;;;4882371;28;87875;-92
2023/08/16 07:13:27;;;;;;;7.40;2.30;;;25.00;60.90;;;;;;4875906;28;88326;-92
2023/08/16 07:15:52;;;;;;;5.53;2.60;;;24.90;60.80;;;;;;4877142;28;89282;-93
2023/08/16 07:18:18;;;;;;;3.58;2.03;;;24.90;60.60;;;;;;4880656;28;90031;-92
2023/08/16 07:20:44;;;;;;;4.03;2.20;;;24.90;60.60;;;;;;4878313;28;90084;-92
2023/08/16 07:23:10;;;;;;;6.35;2.78;;;24.90;60.60;;;;;;4878108;28;87777;-92
2023/08/16 07:25:36;;;;;;;5.32;2.20;;;24.90;60.70;;;;;;4874393;28;88491;-93
2023/08/16 07:28:04;;;;;;;4.53;1.88;;;24.90;60.60;;;;;;4879950;28;88132;-95
2023/08/16 07:30:29;;;;;;;6.13;2.53;;;24.80;60.80;;;;;;4877623;28;91003;-91
2023/08/16 07:32:55;;;;;;;4.15;2.22;;;24.80;60.80;;;;;;4900825;28;86817;-92
2023/08/16 07:35:22;;;;;;;4.25;2.40;;;24.80;61.00;;;;;;4880071;28;87282;-95
2023/08/16 07:37:47;;;;;;;3.22;1.95;;;24.80;60.90;;;;;;4879583;28;88593;-94
2023/08/16 07:40:13;;;;;;;4.60;2.60;;;24.80;61.10;;;;;;4875801;28;90799;-94
2023/08/16 07:42:39;;;;;;;4.90;2.40;;;24.80;61.30;;;;;;4876735;28;87342;-92
2023/08/16 07:45:05;;;;;;;5.30;2.72;;;24.80;61.60;;;;;;4877260;28;88183;-94
2023/08/16 07:47:32;;;;;;;4.20;2.47;;;24.70;62.30;;;;;;4908150;28;94270;-93
2023/08/16 07:49:58;;;;;;;4.55;2.42;;;24.70;62.40;;;;;;4877014;28;90501;-95
2023/08/16 07:52:24;;;;;;;6.53;3.00;;;24.70;63.00;;;;;;4878754;28;88181;-93
2023/08/16 07:54:49;;;;;;;5.07;2.50;;;24.70;62.20;;;;;;4878716;28;89094;-93
2023/08/16 07:57:16;;;;;;;3.58;2.42;;;24.70;62.20;;;;;;4877713;28;91312;-91
2023/08/16 07:59:42;;;;;;;4.03;2.63;;;24.70;62.10;;;;;;4880906;28;89288;-93
2023/08/16 08:02:07;;;;;;;7.45;2.50;;;24.70;62.50;;;;;;4883986;28;88536;-90
2023/08/16 08:04:34;;;;;;;8.13;2.63;;;24.70;62.60;;;;;;4881284;28;89129;-94
2023/08/16 08:07:00;;;;;;;184.25;32.58;;;24.70;62.60;;;;;;4880792;28;87778;-94
2023/08/16 08:09:28;;;;;;;143.25;28.58;;;24.70;62.90;;;;;;4879720;28;89030;-94
2023/08/16 08:11:53;;;;;;;98.00;22.65;;;24.70;63.20;;;;;;4879600;28;88102;-93
2023/08/16 08:14:19;;;;;;;87.13;19.02;;;24.70;63.40;;;;;;4878048;28;91085;-92
2023/08/16 08:16:45;;;;;;;69.35;16.17;;;24.70;63.70;;;;;;4874178;28;90175;-93
2023/08/16 08:19:11;;;;;;;52.70;14.75;;;24.80;63.30;;;;;;4876889;28;92982;-92
2023/08/16 08:21:37;;;;;;;55.35;13.38;;;24.70;63.50;;;;;;4876008;28;87303;-93
2023/08/16 08:24:03;;;;;;;48.30;13.18;;;24.70;63.40;;;;;;4873714;28;88338;-93
2023/08/16 08:26:30;;;;;;;39.15;11.88;;;24.70;63.70;;;;;;4874420;28;91360;-93
2023/08/16 08:28:56;;;;;;;48.78;11.68;;;24.70;63.60;;;;;;4877319;28;91799;-93
2023/08/16 08:31:23;;;;;;;35.50;10.68;;;24.70;63.70;;;;;;4877674;28;87271;-94
2023/08/16 08:33:48;;;;;;;29.33;9.50;;;24.80;63.70;;;;;;4875375;28;88851;-96
2023/08/16 08:36:15;;;;;;;32.30;8.90;;;24.70;63.50;;;;;;4877214;28;89118;-93
2023/08/16 08:38:41;;;;;;;33.65;8.48;;;24.70;63.70;;;;;;4876052;28;90486;-93
2023/08/16 08:41:08;;;;;;;23.30;8.27;;;24.70;63.70;;;;;;4872654;28;87504;-94
2023/08/16 08:43:35;;;;;;;19.42;7.75;;;24.70;63.70;;;;;;4880753;28;89255;-92
2023/08/16 08:46:03;;;;;;;21.83;7.30;;;24.70;63.80;;;;;;4881853;28;87004;-93
2023/08/16 08:48:30;;;;;;;17.50;7.07;;;24.80;64.10;;;;;;4880780;28;88842;-94
2023/08/16 08:50:56;;;;;;;15.05;6.22;;;24.70;64.00;;;;;;4880146;28;88678;-91
2023/08/16 08:53:26;;;;;;;16.42;6.45;;;24.70;64.10;;;;;;4913087;28;88166;-93
2023/08/16 08:55:54;;;;;;;19.20;6.32;;;24.70;64.20;;;;;;4880918;28;87963;-92
2023/08/16 08:58:20;;;;;;;18.65;6.68;;;24.70;64.20;;;;;;4880655;28;88830;-93
2023/08/16 09:00:47;;;;;;;16.73;5.57;;;24.70;64.40;;;;;;4879885;28;87486;-94
2023/08/16 09:03:17;;;;;;;12.95;5.28;;;24.70;64.20;;;;;;4880354;28;89559;-92
2023/08/16 09:05:47;;;;;;;;;;;24.80;64.30;;;;;;4880862;28;89529;-95
2023/08/16 09:08:14;;;;;;;9.85;4.03;;;24.80;64.50;;;;;;4882957;28;89243;-94
2023/08/16 09:10:41;;;;;;;13.60;5.30;;;24.80;64.60;;;;;;4880349;28;87825;-93
2023/08/16 09:13:09;;;;;;;8.85;4.75;;;24.80;64.80;;;;;;4879115;28;88597;-93
2023/08/16 09:15:36;;;;;;;9.75;4.70;;;24.80;64.80;;;;;;4878651;28;90158;-91
2023/08/16 09:18:11;;;;;;;10.55;4.93;;;24.80;65.00;;;;;;4880511;28;90101;-93
2023/08/16 09:20:37;;;;;;;10.25;4.68;;;24.80;64.90;;;;;;4881474;28;87826;-94
2023/08/16 09:23:03;;;;;;;8.70;4.60;;;24.80;65.00;;;;;;4880158;28;88216;-93
2023/08/16 09:25:30;;;;;;;11.23;4.13;;;24.70;65.00;;;;;;4880542;28;88090;-92
2023/08/16 09:27:55;;;;;;;8.00;4.22;;;24.80;65.00;;;;;;4880400;28;89248;-94
2023/08/16 09:30:23;;;;;;;6.78;4.00;;;24.80;65.10;;;;;;4881445;28;87605;-93
2023/08/16 09:32:51;;;;;;;7.57;3.90;;;24.80;65.10;;;;;;4880838;28;88090;-93
2023/08/16 09:35:17;;;;;;;9.47;4.27;;;24.80;64.80;;;;;;4871179;28;89570;-92
2023/08/16 09:37:44;;;;;;;5.32;3.75;;;24.80;65.00;;;;;;4878787;28;89103;-92
2023/08/16 09:40:12;;;;;;;10.23;4.07;;;24.80;64.80;;;;;;4879196;28;88189;-93
2023/08/16 09:42:38;;;;;;;6.38;3.95;;;24.90;64.90;;;;;;4870161;28;89020;-92
2023/08/16 09:45:04;;;;;;;7.28;3.85;;;24.90;64.80;;;;;;4881965;28;87323;-94
2023/08/16 09:47:33;;;;;;;9.05;4.68;;;24.90;64.40;;;;;;4880063;28;90188;-93
2023/08/16 09:50:06;;;;;;;9.32;4.55;;;24.90;64.50;;;;;;4879715;28;86970;-92
2023/08/16 09:52:33;;;;;;;9.05;4.13;;;24.90;64.50;;;;;;4873577;28;87808;-91
2023/08/16 09:54:59;;;;;;;7.68;3.95;;;25.00;64.10;;;;;;4872452;28;90684;-92
2023/08/16 09:57:25;;;;;;;9.20;3.88;;;25.00;64.20;;;;;;4859194;28;88806;-93
2023/08/16 09:59:51;;;;;;;5.90;3.88;;;25.20;64.50;;;;;;4874186;28;87312;-92
2023/08/16 10:02:20;;;;;;;7.43;4.07;;;25.20;64.40;;;;;;4874155;28;89996;-93
2023/08/16 10:04:50;;;;;;;9.10;3.72;;;25.20;64.30;;;;;;4890653;28;91436;-93
2023/08/16 10:07:16;;;;;;;7.80;3.85;;;25.20;64.50;;;;;;4877429;28;90982;-91
2023/08/16 10:09:42;;;;;;;8.32;4.00;;;25.10;64.20;;;;;;4877648;28;87105;-91
2023/08/16 10:12:09;;;;;;;6.75;3.63;;;25.20;64.50;;;;;;4875877;28;87969;-90
2023/08/16 10:14:35;;;;;;;7.80;3.40;;;25.20;64.50;;;;;;4877693;28;88770;-92
2023/08/16 10:17:02;;;;;;;6.30;3.45;;;25.20;64.20;;;;;;4875913;28;89993;-92
2023/08/16 10:19:36;;;;;;;6.22;3.05;;;25.20;63.60;;;;;;4876995;28;86912;-92
2023/08/16 10:22:07;;;;;;;7.07;3.35;;;25.20;63.30;;;;;;4874935;28;88040;-91
2023/08/16 10:24:36;;;;;;;7.10;3.30;;;25.20;62.90;;;;;;4892340;28;89969;-90
2023/08/16 10:27:04;;;;;;;5.47;2.85;;;25.10;62.70;;;;;;4876094;28;90176;-91
2023/08/16 10:29:36;;;;;;;5.28;2.92;;;25.10;63.10;;;;;;4876089;28;88278;-91
2023/08/16 10:32:07;;;;;;;4.72;2.72;;;25.10;62.50;;;;;;4876273;28;88586;-91
2023/08/16 10:34:34;;;;;;;7.47;3.15;;;25.10;61.90;;;;;;4874887;28;90135;-92
2023/08/16 10:37:00;;;;;;;9.27;3.25;;;25.10;62.40;;;;;;4875333;28;89281;-92
2023/08/16 10:39:30;;;;;;;5.53;2.80;;;25.10;62.40;;;;;;4877396;28;87770;-92
2023/08/16 10:42:06;;;;;;;4.13;2.78;;;25.20;63.20;;;;;;4877250;28;88037;-92
2023/08/16 10:44:32;;;;;;;4.00;3.03;;;25.20;63.30;;;;;;4876230;28;95653;-91
2023/08/16 10:46:58;;;;;;;5.53;2.63;;;25.20;62.50;;;;;;4860793;28;89464;-88
2023/08/16 10:49:39;;;;;;;5.53;3.10;;;25.30;62.80;;;;;;4874981;28;87691;-91
2023/08/16 10:52:05;;;;;;;6.07;2.67;;;25.30;63.00;;;;;;4872975;28;89436;-91
2023/08/16 10:54:35;;;;;;;6.20;2.70;;;25.30;62.90;;;;;;4875453;28;89930;-92
2023/08/16 10:57:02;;;;;;;5.32;2.90;;;25.20;62.90;;;;;;4876046;28;90992;-90
2023/08/16 10:59:49;;;;;;;5.45;2.75;;;25.20;62.80;;;;;;4874808;28;87714;-91
2023/08/16 11:02:15;;;;;;;4.78;2.50;;;25.20;63.20;;;;;;4873041;28;89231;-89
2023/08/16 11:04:45;;;;;;;9.75;3.30;;;25.20;63.20;;;;;;4873778;28;89427;-89
2023/08/16 11:07:12;;;;;;;6.10;3.20;;;25.20;63.10;;;;;;4874426;28;90016;-89
2023/08/16 11:09:39;;;;;;;5.38;2.67;;;25.20;63.00;;;;;;4874704;28;87657;-91
2023/08/16 11:12:06;;;;;;;2.72;2.22;;;25.20;62.80;;;;;;4892106;28;90098;-91
2023/08/16 11:14:34;;;;;;;6.45;2.80;;;25.30;62.70;;;;;;4873560;28;94581;-91
2023/08/16 11:16:59;;;;;;;5.07;2.85;;;25.20;62.70;;;;;;4874575;28;89739;-90
2023/08/16 11:19:25;;;;;;;5.25;2.40;;;25.20;62.70;;;;;;4876505;28;88524;-91
2023/08/16 11:21:51;;;;;;;8.82;2.95;;;25.20;63.00;;;;;;4875805;28;89824;-91
2023/08/16 11:24:18;;;;;;;5.45;2.83;;;25.10;63.20;;;;;;4875855;28;90679;-91
2023/08/16 11:26:44;;;;;;;7.00;3.05;;;25.10;63.00;;;;;;4876623;28;89693;-91
2023/08/16 11:29:09;;;;;;;5.05;2.85;;;25.10;63.10;;;;;;4873683;28;87369;-91
2023/08/16 11:31:36;;;;;;;4.82;2.47;;;25.10;63.20;;;;;;4876855;28;87908;-92
2023/08/16 11:34:08;;;;;;;7.07;3.35;;;25.10;63.20;;;;;;4905145;28;90436;-92
2023/08/16 11:36:39;;;;;;;7.85;2.65;;;25.10;63.40;;;;;;4875932;28;90477;-91
2023/08/16 11:39:08;;;;;;;3.72;2.67;;;25.10;63.60;;;;;;4876363;28;87167;-92
2023/08/16 11:41:35;;;;;;;9.13;3.63;;;25.00;63.40;;;;;;4876352;28;92731;-92
2023/08/16 11:44:01;;;;;;;5.35;3.35;;;25.10;63.30;;;;;;4874462;28;92038;-91
2023/08/16 11:46:27;;;;;;;4.78;2.83;;;25.00;63.30;;;;;;4876570;28;91164;-91
2023/08/16 11:48:54;;;;;;;4.60;3.00;;;25.00;63.20;;;;;;4873620;28;87458;-91
2023/08/16 11:51:20;;;;;;;3.70;2.72;;;25.10;63.30;;;;;;4875599;28;89318;-91
2023/08/16 11:53:46;;;;;;;4.38;3.22;;;25.00;63.20;;;;;;4877073;28;87248;-91
2023/08/16 11:56:12;;;;;;;5.32;3.28;;;25.10;63.20;;;;;;4874763;28;89259;-92
2023/08/16 11:58:46;;;;;;;4.68;3.33;;;25.10;63.10;;;;;;4874826;28;87985;-91
2023/08/16 12:01:14;;;;;;;5.10;3.40;;;25.10;63.30;;;;;;4874883;28;89618;-92
2023/08/16 12:03:45;;;;;;;3.20;2.70;;;25.10;63.20;;;;;;4874955;28;87814;-92
2023/08/16 12:06:11;;;;;;;4.32;2.70;;;25.10;63.10;;;;;;4861360;28;90123;-91
2023/08/16 12:08:54;;;;;;;4.70;3.20;;;25.10;63.00;;;;;;4875738;28;88685;-91
2023/08/16 12:11:26;;;;;;;13.30;3.03;;;25.10;63.10;;;;;;4876058;28;87837;-92
2023/08/16 12:13:52;;;;;;;4.15;2.65;;;25.10;63.00;;;;;;4890707;28;90462;-92
2023/08/16 12:16:18;;;;;;;5.43;2.83;;;25.10;63.10;;;;;;4874777;23;88267;-84
2023/08/16 12:18:44;;;;;;;5.97;2.90;;;25.10;63.00;;;;;;4876191;28;87352;-82
2023/08/16 12:21:09;;;;;;;4.45;2.60;;;25.10;62.90;;;;;;4868885;28;88310;-84
2023/08/16 12:23:35;;;;;;;5.07;3.17;;;25.10;62.70;;;;;;4868524;28;87372;-86
2023/08/16 12:26:01;;;;;;;4.30;2.65;;;25.10;62.80;;;;;;4867308;28;87472;-86
2023/08/16 12:28:26;;;;;;;5.82;2.67;;;25.20;63.00;;;;;;4867125;28;87803;-85
2023/08/16 12:30:52;;;;;;;4.25;2.78;;;25.10;62.80;;;;;;4866653;28;88169;-84
2023/08/16 12:33:18;;;;;;;4.03;2.40;;;25.10;62.80;;;;;;4867954;28;88858;-85
2023/08/16 12:35:43;;;;;;;3.13;2.33;;;25.10;62.90;;;;;;4869034;28;89132;-89
2023/08/16 12:38:09;;;;;;;3.22;2.40;;;25.10;63.00;;;;;;4869256;28;87917;-85
2023/08/16 12:40:35;;;;;;;3.65;2.50;;;25.20;63.00;;;;;;4869239;28;87461;-87
2023/08/16 12:43:02;;;;;;;2.97;2.13;;;25.10;63.00;;;;;;4891810;28;90238;-84